aviador You're here:

LJMB Decoded Metar

MARIBOR in SLOVENIA
Report Time2017-09-25 16:30:00
UTC Time2017-09-25 16:51:50
Flight Rules vfr VFR
Wind030° at 02 kt
W.Decomp.*RWY 32: 0.8 kt HW 1.8 kt RCW
W.Rank030° ranks 14
Current wind is below 030° avg. (5.1)
Visibility9999 m
Phenomena:N/A
Clouds:Few 030 Hf
Broken 060 Hf
Expected CloudBase > 2,000 ft AGL from Temp-Dew spread
Ceiling6,000 ft
Temp15°C (ISA +2)
Dew Point10°C (72% RH)
AAT14.3°C
QNH1022 hPa
Density Alt938 ft
Elevation869 ft
Report Wrong Elevation
Raw Report
LJMB 251630Z 03002KT 9999 FEW030 BKN060 15/10 Q1022=

Extra information for LJMB:More info

Metar Taf Metar & Taf Last 4 Metars F.Rules Stats Wind Profile Meteogram Temp Stats Airport Information Weather charts Add Link Nearby VenuesMetar ALERT Operation Metar Decoded Social comments